createdAt,value
2018-07-26T00:00:55.146Z,8.37
2018-07-26T00:03:23.704Z,8.20
2018-07-26T00:05:52.420Z,7.60
2018-07-26T00:08:21.075Z,8.13
2018-07-26T00:10:49.637Z,8.00
2018-07-26T00:13:18.312Z,8.00
2018-07-26T00:15:47.027Z,7.80
2018-07-26T00:18:15.528Z,7.20
2018-07-26T00:20:44.184Z,8.37
2018-07-26T00:23:12.888Z,8.10
2018-07-26T00:25:41.439Z,8.20
2018-07-26T00:28:10.100Z,7.97
2018-07-26T00:30:38.708Z,8.23
2018-07-26T00:33:07.241Z,7.97
2018-07-26T00:35:35.747Z,8.67
2018-07-26T00:38:04.335Z,7.80
2018-07-26T00:40:32.834Z,8.10
2018-07-26T00:43:01.409Z,8.80
2018-07-26T00:45:29.991Z,8.97
2018-07-26T00:47:58.475Z,8.70
2018-07-26T00:50:27.179Z,8.40
2018-07-26T00:52:55.752Z,9.10
2018-07-26T00:55:24.296Z,9.90
2018-07-26T00:57:53.479Z,10.60
2018-07-26T01:00:22.088Z,10.50
2018-07-26T01:02:50.852Z,11.27
2018-07-26T01:05:19.939Z,9.93
2018-07-26T01:07:48.692Z,10.90
2018-07-26T01:10:17.398Z,11.83
2018-07-26T01:12:45.923Z,11.10
2018-07-26T01:15:14.545Z,11.53
2018-07-26T01:17:43.146Z,10.30
2018-07-26T01:20:11.832Z,11.23
2018-07-26T01:22:40.376Z,13.20
2018-07-26T01:25:09.048Z,11.27
2018-07-26T01:27:37.608Z,10.83
2018-07-26T01:30:06.560Z,10.20
2018-07-26T01:32:35.143Z,10.43
2018-07-26T01:35:03.972Z,9.80
2018-07-26T01:37:32.523Z,9.93
2018-07-26T01:40:01.149Z,10.20
2018-07-26T01:42:30.565Z,9.43
2018-07-26T01:44:59.050Z,8.90
2018-07-26T01:47:27.731Z,9.73
2018-07-26T01:49:56.587Z,9.90
2018-07-26T01:52:25.199Z,9.67
2018-07-26T01:54:53.754Z,9.20
2018-07-26T01:57:22.270Z,8.73
2018-07-26T01:59:50.792Z,8.33
2018-07-26T02:02:19.680Z,8.13
2018-07-26T02:04:48.296Z,8.27
2018-07-26T02:07:16.785Z,8.57
2018-07-26T02:09:45.487Z,8.03
2018-07-26T02:12:13.982Z,8.40
2018-07-26T02:14:42.485Z,8.50
2018-07-26T02:17:11.036Z,7.13
2018-07-26T02:19:39.626Z,7.70
2018-07-26T02:22:08.509Z,7.63
2018-07-26T02:24:37.128Z,7.47
2018-07-26T02:27:06.072Z,7.63
2018-07-26T02:29:34.588Z,8.50
2018-07-26T02:32:03.076Z,7.80
2018-07-26T02:34:31.604Z,7.73
2018-07-26T02:37:00.117Z,8.40
2018-07-26T02:39:28.693Z,9.70
2018-07-26T02:41:56.918Z,9.70
2018-07-26T02:44:25.468Z,11.17
2018-07-26T02:46:53.992Z,10.23
2018-07-26T02:49:22.650Z,10.67
2018-07-26T02:51:51.175Z,9.73
2018-07-26T02:54:19.737Z,11.80
2018-07-26T02:56:48.295Z,10.57
2018-07-26T02:59:16.851Z,10.47
2018-07-26T03:01:45.398Z,11.97
2018-07-26T03:04:13.911Z,11.70
2018-07-26T03:06:42.568Z,11.17
2018-07-26T03:09:11.133Z,11.10
2018-07-26T03:11:39.847Z,10.97
2018-07-26T03:14:08.452Z,10.60
2018-07-26T03:16:36.990Z,11.10
2018-07-26T03:19:05.539Z,10.63
2018-07-26T03:21:34.161Z,9.60
2018-07-26T03:24:02.670Z,10.47
2018-07-26T03:26:31.222Z,10.10
2018-07-26T03:28:59.770Z,10.97
2018-07-26T03:31:28.379Z,11.20
2018-07-26T03:33:56.921Z,12.17
2018-07-26T03:36:25.446Z,11.60
2018-07-26T03:38:53.956Z,10.73
2018-07-26T03:41:22.471Z,11.90
2018-07-26T03:43:51.031Z,11.17
2018-07-26T03:46:19.546Z,11.50
2018-07-26T03:48:48.546Z,10.10
2018-07-26T03:51:17.231Z,11.03
2018-07-26T03:53:45.783Z,11.20
2018-07-26T03:56:15.711Z,11.53
2018-07-26T03:58:44.434Z,11.57
2018-07-26T04:01:13.100Z,10.90
2018-07-26T04:03:41.731Z,11.23
2018-07-26T04:06:10.263Z,10.83
2018-07-26T04:08:38.808Z,11.97
2018-07-26T04:11:07.444Z,11.27
2018-07-26T04:13:35.980Z,11.93
2018-07-26T04:16:04.526Z,12.27
2018-07-26T04:18:33.075Z,12.17
2018-07-26T04:21:01.659Z,10.57
2018-07-26T04:23:30.148Z,11.47
2018-07-26T04:25:58.729Z,12.00
2018-07-26T04:28:27.299Z,12.47
2018-07-26T04:30:55.906Z,12.33
2018-07-26T04:33:24.955Z,11.60
2018-07-26T04:35:53.519Z,11.53
2018-07-26T04:38:22.042Z,12.23
2018-07-26T04:40:50.713Z,10.97
2018-07-26T04:43:19.354Z,11.87
2018-07-26T04:45:48.031Z,12.03
2018-07-26T04:48:16.661Z,10.97
2018-07-26T04:50:45.213Z,11.50
2018-07-26T04:53:13.897Z,10.40
2018-07-26T04:55:42.556Z,10.73
2018-07-26T04:58:11.130Z,11.93
2018-07-26T05:00:39.824Z,11.53
2018-07-26T05:03:08.475Z,11.20
2018-07-26T05:05:37.010Z,10.87
2018-07-26T05:08:05.548Z,12.00
2018-07-26T05:10:34.200Z,10.50
2018-07-26T05:13:02.729Z,10.23
2018-07-26T05:15:31.376Z,9.40
2018-07-26T05:18:00.098Z,10.80
2018-07-26T05:20:28.618Z,11.23
2018-07-26T05:22:57.182Z,10.90
2018-07-26T05:25:25.747Z,11.40
2018-07-26T05:27:54.741Z,11.93
2018-07-26T05:30:23.357Z,10.40
2018-07-26T05:32:52.019Z,13.13
2018-07-26T05:35:20.753Z,11.90
2018-07-26T05:37:49.311Z,12.40
2018-07-26T05:40:17.894Z,13.73
2018-07-26T05:42:46.635Z,13.17
2018-07-26T05:45:15.295Z,12.23
2018-07-26T05:47:44.076Z,12.37
2018-07-26T05:50:12.716Z,12.83
2018-07-26T05:52:41.286Z,11.00
2018-07-26T05:55:10.720Z,11.10
2018-07-26T05:57:39.411Z,11.63
2018-07-26T06:00:11.129Z,11.30
2018-07-26T06:02:39.835Z,12.03
2018-07-26T06:05:09.080Z,10.80
2018-07-26T06:07:37.619Z,9.60
2018-07-26T06:10:06.329Z,11.43
2018-07-26T06:12:34.484Z,10.03
2018-07-26T06:15:03.167Z,10.20
2018-07-26T06:17:31.735Z,10.10
2018-07-26T06:20:00.377Z,8.80
2018-07-26T06:22:29.127Z,11.60
2018-07-26T06:24:57.715Z,9.70
2018-07-26T06:27:25.891Z,11.40
2018-07-26T06:29:54.199Z,10.47
2018-07-26T06:32:22.702Z,12.03
2018-07-26T06:34:51.302Z,10.67
2018-07-26T06:37:19.921Z,10.87
2018-07-26T06:39:48.493Z,10.87
2018-07-26T06:42:17.072Z,9.67
2018-07-26T06:44:45.624Z,10.63
2018-07-26T06:47:14.248Z,10.73
2018-07-26T06:49:42.836Z,11.10
2018-07-26T06:52:11.467Z,10.90
2018-07-26T06:54:40.091Z,9.80
2018-07-26T06:57:08.699Z,10.27
2018-07-26T06:59:37.361Z,10.27
2018-07-26T07:02:05.903Z,10.20
2018-07-26T07:04:34.452Z,9.67
2018-07-26T07:07:03.055Z,9.97
2018-07-26T07:09:31.691Z,9.83
2018-07-26T07:12:00.257Z,9.27
2018-07-26T07:14:29.207Z,8.33
2018-07-26T07:16:57.831Z,9.63
2018-07-26T07:19:26.356Z,8.03
2018-07-26T07:21:55.107Z,7.43
2018-07-26T07:24:23.838Z,6.80
2018-07-26T07:26:53.515Z,6.60
2018-07-26T07:29:22.624Z,6.40
2018-07-26T07:31:51.184Z,6.50
2018-07-26T07:34:19.887Z,7.07
2018-07-26T07:36:48.653Z,5.97
2018-07-26T07:39:17.272Z,5.60
2018-07-26T07:41:45.904Z,4.97
2018-07-26T07:44:14.712Z,5.37
2018-07-26T07:46:43.326Z,4.67
2018-07-26T07:49:11.840Z,5.30
2018-07-26T07:51:40.528Z,5.30
2018-07-26T07:54:09.112Z,4.90
2018-07-26T07:56:37.731Z,5.47
2018-07-26T07:59:06.599Z,5.43
2018-07-26T08:01:35.287Z,4.83
2018-07-26T08:04:03.883Z,5.30
2018-07-26T08:06:32.455Z,5.30
2018-07-26T08:09:00.936Z,5.07
2018-07-26T08:11:29.531Z,4.63
2018-07-26T08:13:58.103Z,5.50
2018-07-26T08:16:26.605Z,4.57
2018-07-26T08:18:56.119Z,4.50
2018-07-26T08:21:24.727Z,4.30
2018-07-26T08:23:53.377Z,4.47
2018-07-26T08:26:21.961Z,4.20
2018-07-26T08:28:50.503Z,4.53
2018-07-26T08:31:19.034Z,4.23
2018-07-26T08:33:47.631Z,4.63
2018-07-26T08:36:16.150Z,4.03
2018-07-26T08:38:44.812Z,4.40
2018-07-26T08:41:13.325Z,3.73
2018-07-26T08:43:41.944Z,4.43
2018-07-26T08:46:10.433Z,3.87
2018-07-26T08:48:38.995Z,4.40
2018-07-26T08:51:07.516Z,3.60
2018-07-26T08:53:36.143Z,3.67
2018-07-26T08:56:04.668Z,3.60
2018-07-26T08:58:33.220Z,4.10
2018-07-26T09:01:01.908Z,3.80
2018-07-26T09:03:30.563Z,4.10
2018-07-26T09:05:59.121Z,3.50
2018-07-26T09:08:27.887Z,4.60
2018-07-26T09:10:56.688Z,3.67
2018-07-26T09:13:25.355Z,3.30
2018-07-26T09:15:54.034Z,2.70
2018-07-26T09:18:22.686Z,3.20
2018-07-26T09:20:51.286Z,2.63
2018-07-26T09:23:20.292Z,3.05
2018-07-26T09:25:48.852Z,2.95
2018-07-26T09:28:17.459Z,3.00
2018-07-26T09:30:46.099Z,3.58
2018-07-26T09:33:14.677Z,2.90
2018-07-26T09:35:43.260Z,3.45
2018-07-26T09:38:12.012Z,3.20
2018-07-26T09:40:40.608Z,3.20
2018-07-26T09:43:09.388Z,3.15
2018-07-26T09:45:37.967Z,2.90
2018-07-26T09:48:06.713Z,2.60
2018-07-26T09:50:35.243Z,2.85
2018-07-26T09:53:03.855Z,2.85
2018-07-26T09:55:32.437Z,2.83
2018-07-26T09:58:01.107Z,3.30
2018-07-26T10:00:35.140Z,2.90
2018-07-26T10:03:03.667Z,3.27
2018-07-26T10:05:32.171Z,2.80
2018-07-26T10:08:00.667Z,3.33
2018-07-26T10:10:29.144Z,3.30
2018-07-26T10:12:57.695Z,2.90
2018-07-26T10:15:26.335Z,2.87
2018-07-26T10:17:54.758Z,3.60
2018-07-26T10:20:23.317Z,3.17
2018-07-26T10:22:51.876Z,3.07
2018-07-26T10:25:20.519Z,2.23
2018-07-26T10:27:49.098Z,2.70
2018-07-26T10:30:17.660Z,2.60
2018-07-26T10:32:46.256Z,2.17
2018-07-26T10:35:14.754Z,2.60
2018-07-26T10:37:43.394Z,2.13
2018-07-26T10:40:12.096Z,2.30
2018-07-26T10:42:40.614Z,1.87
2018-07-26T10:45:09.178Z,2.27
2018-07-26T10:47:37.740Z,2.40
2018-07-26T10:50:08.895Z,2.13
2018-07-26T10:52:37.535Z,2.20
2018-07-26T10:55:06.945Z,2.00
2018-07-26T10:57:36.340Z,2.70
2018-07-26T11:00:06.596Z,2.20
2018-07-26T11:02:35.210Z,2.53
2018-07-26T11:05:04.672Z,2.00
2018-07-26T11:07:33.157Z,2.30
2018-07-26T11:10:01.763Z,2.30
2018-07-26T11:12:30.351Z,2.27
2018-07-26T11:15:06.780Z,2.10
2018-07-26T11:17:35.412Z,2.10
2018-07-26T11:20:04.029Z,2.10
2018-07-26T11:22:32.758Z,2.20
2018-07-26T11:25:01.459Z,1.93
2018-07-26T11:27:30.173Z,2.10
2018-07-26T11:29:58.973Z,2.10
2018-07-26T11:32:27.567Z,2.67
2018-07-26T11:34:56.005Z,2.47
2018-07-26T11:37:24.571Z,2.00
2018-07-26T11:39:53.106Z,2.20
2018-07-26T11:42:21.375Z,2.23
2018-07-26T11:44:50.085Z,2.20
2018-07-26T11:47:18.663Z,1.93
2018-07-26T11:49:47.311Z,2.83
2018-07-26T11:52:16.122Z,2.00
2018-07-26T11:54:44.703Z,2.47
2018-07-26T11:57:13.415Z,2.43
2018-07-26T11:59:42.078Z,2.33
2018-07-26T12:02:10.791Z,2.30
2018-07-26T12:04:39.347Z,2.20
2018-07-26T12:07:08.311Z,2.87
2018-07-26T12:09:37.632Z,2.30
2018-07-26T12:12:06.269Z,2.50
2018-07-26T12:14:35.022Z,1.63
2018-07-26T12:17:03.599Z,2.23
2018-07-26T12:19:32.163Z,2.37
2018-07-26T12:22:00.944Z,2.20
2018-07-26T12:24:29.771Z,2.53
2018-07-26T12:26:58.332Z,2.03
2018-07-26T12:29:27.019Z,2.13
2018-07-26T12:31:55.622Z,1.77
2018-07-26T12:34:24.453Z,2.20
2018-07-26T12:36:53.076Z,1.90
2018-07-26T12:39:21.644Z,1.90
2018-07-26T12:41:50.222Z,1.87
2018-07-26T12:44:18.834Z,1.97
2018-07-26T12:46:47.567Z,1.93
2018-07-26T12:49:16.085Z,2.10
2018-07-26T12:51:44.729Z,1.90
2018-07-26T12:54:13.224Z,1.70
2018-07-26T12:56:41.917Z,1.73
2018-07-26T12:59:10.623Z,2.60
2018-07-26T13:01:39.216Z,2.23
2018-07-26T13:04:07.746Z,2.07
2018-07-26T13:06:36.316Z,2.70
2018-07-26T13:09:07.956Z,2.50
2018-07-26T13:11:36.517Z,2.03
2018-07-26T13:14:06.408Z,2.30
2018-07-26T13:16:35.008Z,1.50
2018-07-26T13:19:03.580Z,2.23
2018-07-26T13:21:32.131Z,2.30
2018-07-26T13:24:00.657Z,2.30
2018-07-26T13:26:29.278Z,2.37
2018-07-26T13:28:57.794Z,2.30
2018-07-26T13:31:26.432Z,1.93
2018-07-26T13:33:54.932Z,2.30
2018-07-26T13:36:23.532Z,2.30
2018-07-26T13:38:51.951Z,2.30
2018-07-26T13:41:20.772Z,2.27
2018-07-26T13:43:49.546Z,2.37
2018-07-26T13:46:18.102Z,2.60
2018-07-26T13:48:46.577Z,2.50
2018-07-26T13:51:15.255Z,2.47
2018-07-26T13:53:43.821Z,2.53
2018-07-26T13:56:12.380Z,2.23
2018-07-26T13:58:41.030Z,2.80
2018-07-26T14:01:09.721Z,2.50
2018-07-26T14:03:38.335Z,2.50
2018-07-26T14:06:06.884Z,2.63
2018-07-26T14:08:35.410Z,2.40
2018-07-26T14:11:03.945Z,2.50
2018-07-26T14:13:32.529Z,2.77
2018-07-26T14:16:01.245Z,2.77
2018-07-26T14:18:29.954Z,2.93
2018-07-26T14:20:58.538Z,2.57
2018-07-26T14:23:32.460Z,2.60
2018-07-26T14:26:01.004Z,2.60
2018-07-26T14:28:29.491Z,2.50
2018-07-26T14:30:58.107Z,2.53
2018-07-26T14:33:26.687Z,2.90
2018-07-26T14:35:55.274Z,2.57
2018-07-26T14:38:24.037Z,2.50
2018-07-26T14:40:52.657Z,3.07
2018-07-26T14:43:21.208Z,2.77
2018-07-26T14:45:50.113Z,2.73
2018-07-26T14:48:18.810Z,3.03
2018-07-26T14:50:47.335Z,2.73
2018-07-26T14:53:16.058Z,2.90
2018-07-26T14:55:44.620Z,2.60
2018-07-26T14:58:13.224Z,2.10
2018-07-26T15:00:41.823Z,2.60
2018-07-26T15:03:10.619Z,2.40
2018-07-26T15:05:39.273Z,2.63
2018-07-26T15:08:07.843Z,2.47
2018-07-26T15:10:36.488Z,2.90
2018-07-26T15:13:05.122Z,2.77
2018-07-26T15:15:33.663Z,2.67
2018-07-26T15:18:02.183Z,2.30
2018-07-26T15:20:31.006Z,2.60
2018-07-26T15:22:59.591Z,3.40
2018-07-26T15:25:28.116Z,2.97
2018-07-26T15:27:57.518Z,4.07
2018-07-26T15:30:26.101Z,2.63
2018-07-26T15:32:55.034Z,3.13
2018-07-26T15:35:23.588Z,3.23
2018-07-26T15:37:52.425Z,3.20
2018-07-26T15:40:20.819Z,3.30
2018-07-26T15:42:49.473Z,3.03
2018-07-26T15:45:18.200Z,3.03
2018-07-26T15:47:47.008Z,3.07
2018-07-26T15:50:15.512Z,2.73
2018-07-26T15:52:43.894Z,3.03
2018-07-26T15:55:12.417Z,3.30
2018-07-26T15:57:41.331Z,3.00
2018-07-26T16:00:11.585Z,3.07
2018-07-26T16:02:40.492Z,3.20
2018-07-26T16:05:09.318Z,3.30
2018-07-26T16:07:38.490Z,3.30
2018-07-26T16:10:08.140Z,3.40
2018-07-26T16:12:36.976Z,3.13
2018-07-26T16:15:07.877Z,2.73
2018-07-26T16:17:36.689Z,3.00
2018-07-26T16:20:07.186Z,3.00
2018-07-26T16:22:35.876Z,3.57
2018-07-26T16:25:06.059Z,2.80
2018-07-26T16:27:34.731Z,3.20
2018-07-26T16:30:03.525Z,3.47
2018-07-26T16:32:32.048Z,3.37
2018-07-26T16:35:00.686Z,4.03
2018-07-26T16:37:29.221Z,3.50
2018-07-26T16:39:57.836Z,3.13
2018-07-26T16:42:26.570Z,3.57
2018-07-26T16:44:55.361Z,3.33
2018-07-26T16:47:23.896Z,3.00
2018-07-26T16:49:52.504Z,3.50
2018-07-26T16:52:21.194Z,3.40
2018-07-26T16:54:49.831Z,3.23
2018-07-26T16:57:18.804Z,3.10
2018-07-26T16:59:47.618Z,3.00
2018-07-26T17:02:16.244Z,3.40
2018-07-26T17:04:44.884Z,3.03
2018-07-26T17:07:13.957Z,4.07
2018-07-26T17:22:03.077Z,3.03
2018-07-26T17:24:31.791Z,2.90
2018-07-26T17:27:00.523Z,4.20
2018-07-26T17:29:29.029Z,3.37
2018-07-26T17:31:57.854Z,2.83
2018-07-26T17:34:26.404Z,2.93
2018-07-26T17:36:55.409Z,2.90
2018-07-26T17:39:24.209Z,3.50
2018-07-26T17:41:53.201Z,3.33
2018-07-26T17:44:22.367Z,3.20
2018-07-26T17:46:51.234Z,2.93
2018-07-26T17:51:48.314Z,3.30
2018-07-26T17:54:17.025Z,3.10
2018-07-26T17:56:45.685Z,2.63
2018-07-26T17:59:14.695Z,3.67
2018-07-26T18:01:43.216Z,3.60
2018-07-26T18:04:12.445Z,2.90
2018-07-26T18:06:41.001Z,2.50
2018-07-26T18:09:10.108Z,3.30
2018-07-26T18:11:38.849Z,2.77
2018-07-26T18:14:08.323Z,3.47
2018-07-26T18:16:36.877Z,3.10
2018-07-26T18:19:05.577Z,3.00
2018-07-26T18:21:34.248Z,3.10
2018-07-26T18:24:02.929Z,3.10
2018-07-26T18:26:32.610Z,3.13
2018-07-26T18:29:01.253Z,2.90
2018-07-26T18:31:30.113Z,3.50
2018-07-26T18:33:58.851Z,3.17
2018-07-26T18:36:27.533Z,4.00
2018-07-26T18:38:56.568Z,4.30
2018-07-26T18:41:25.397Z,3.90
2018-07-26T18:43:54.083Z,3.80
2018-07-26T18:46:22.766Z,3.73
2018-07-26T18:48:51.485Z,4.03
2018-07-26T18:51:20.560Z,4.30
2018-07-26T18:53:49.086Z,3.60
2018-07-26T18:56:17.796Z,4.20
2018-07-26T18:58:46.552Z,4.23
2018-07-26T19:01:15.153Z,3.23
2018-07-26T19:03:43.939Z,3.50
2018-07-26T19:06:12.512Z,3.70
2018-07-26T19:08:41.183Z,4.03
2018-07-26T19:11:09.746Z,3.67
2018-07-26T19:13:38.503Z,4.50
2018-07-26T19:16:07.949Z,4.67
2018-07-26T19:18:36.739Z,3.87
2018-07-26T19:21:05.812Z,4.47
2018-07-26T19:23:34.603Z,5.00
2018-07-26T19:26:03.549Z,4.80
2018-07-26T19:28:32.099Z,4.00
2018-07-26T19:31:01.196Z,3.87
2018-07-26T19:33:30.155Z,4.20
2018-07-26T19:35:59.051Z,3.83
2018-07-26T19:38:28.053Z,3.60
2018-07-26T19:40:57.832Z,4.70
2018-07-26T19:43:27.229Z,4.07
2018-07-26T19:45:55.934Z,4.70
2018-07-26T19:48:25.154Z,3.93
2018-07-26T19:50:53.998Z,4.27
2018-07-26T19:53:23.312Z,4.73
2018-07-26T19:55:51.887Z,4.93
2018-07-26T19:58:20.530Z,4.57
2018-07-26T20:00:50.944Z,4.87
2018-07-26T20:03:19.701Z,4.63
2018-07-26T20:05:48.504Z,4.70
2018-07-26T20:08:17.814Z,4.43
2018-07-26T20:10:46.538Z,4.60
2018-07-26T20:13:15.337Z,4.37
2018-07-26T20:15:44.260Z,4.90
2018-07-26T20:18:12.947Z,4.47
2018-07-26T20:20:41.816Z,5.30
2018-07-26T20:23:10.463Z,4.57
2018-07-26T20:25:41.875Z,4.73
2018-07-26T20:28:11.061Z,4.60
2018-07-26T20:30:40.048Z,5.03
2018-07-26T20:33:08.863Z,5.10
2018-07-26T20:35:37.747Z,5.45
2018-07-26T20:38:06.454Z,5.00
2018-07-26T20:40:35.272Z,5.10
2018-07-26T20:43:04.060Z,5.60
2018-07-26T20:48:00.542Z,4.80
2018-07-26T20:52:57.070Z,5.47
2018-07-26T20:55:25.669Z,5.33
2018-07-26T20:57:54.592Z,4.70
2018-07-26T21:00:23.421Z,6.10
2018-07-26T21:02:51.987Z,5.30
2018-07-26T21:05:20.740Z,5.10
2018-07-26T21:07:49.517Z,4.87
2018-07-26T21:10:18.103Z,5.63
2018-07-26T21:12:46.768Z,6.27
2018-07-26T21:15:15.343Z,5.50
2018-07-26T21:17:43.590Z,5.57
2018-07-26T21:20:12.261Z,5.37
2018-07-26T21:22:40.924Z,5.70
2018-07-26T21:25:09.642Z,5.93
2018-07-26T21:27:38.363Z,5.80
2018-07-26T21:30:07.577Z,5.20
2018-07-26T21:32:36.563Z,5.60
2018-07-26T21:35:06.332Z,5.80
2018-07-26T21:37:35.094Z,5.17
2018-07-26T21:40:04.120Z,5.40
2018-07-26T21:42:32.839Z,6.57
2018-07-26T21:45:01.473Z,5.17
2018-07-26T21:47:30.109Z,6.50
2018-07-26T21:49:58.706Z,6.80
2018-07-26T21:52:27.327Z,6.30
2018-07-26T21:54:56.259Z,6.10
2018-07-26T21:57:25.751Z,5.87
2018-07-26T21:59:54.425Z,5.87
2018-07-26T22:02:23.128Z,6.13
2018-07-26T22:04:51.928Z,6.10
2018-07-26T22:07:20.783Z,7.90
2018-07-26T22:09:49.491Z,7.50
2018-07-26T22:12:18.243Z,8.40
2018-07-26T22:14:46.896Z,7.40
2018-07-26T22:17:15.513Z,7.03
2018-07-26T22:19:44.236Z,6.90
2018-07-26T22:22:13.025Z,7.60
2018-07-26T22:24:41.604Z,6.70
2018-07-26T22:27:10.315Z,7.00
2018-07-26T22:29:39.016Z,7.63
2018-07-26T22:32:07.765Z,7.33
2018-07-26T22:34:36.368Z,6.67
2018-07-26T22:37:04.969Z,7.40
2018-07-26T22:39:33.696Z,6.90
2018-07-26T22:42:02.257Z,6.50
2018-07-26T22:44:30.877Z,7.40
2018-07-26T22:46:59.521Z,7.60
2018-07-26T22:49:28.097Z,8.80
2018-07-26T22:51:56.697Z,7.77
2018-07-26T22:54:25.488Z,8.10
2018-07-26T22:56:54.104Z,8.00
2018-07-26T22:59:22.645Z,7.93
2018-07-26T23:01:51.288Z,7.63
2018-07-26T23:04:19.926Z,8.03
2018-07-26T23:06:48.670Z,8.70
2018-07-26T23:09:17.948Z,8.03
2018-07-26T23:11:46.595Z,8.30
2018-07-26T23:14:15.335Z,8.17
2018-07-26T23:16:43.866Z,8.90
2018-07-26T23:19:12.408Z,8.33
2018-07-26T23:21:40.985Z,8.73
2018-07-26T23:24:10.275Z,8.23
2018-07-26T23:26:38.917Z,8.57
2018-07-26T23:29:07.642Z,8.30
2018-07-26T23:31:36.389Z,8.90
2018-07-26T23:34:04.979Z,8.03
2018-07-26T23:36:33.502Z,7.90
2018-07-26T23:39:02.033Z,7.83
2018-07-26T23:41:30.659Z,9.30
2018-07-26T23:43:59.172Z,7.80
2018-07-26T23:46:27.829Z,6.67
2018-07-26T23:48:56.290Z,7.57
2018-07-26T23:51:24.883Z,7.17
2018-07-26T23:53:53.628Z,7.40
2018-07-26T23:56:22.230Z,6.47
2018-07-26T23:58:50.863Z,7.43
